sensor_id;sensor_type;location;lat;lon;timestamp;P1;durP1;ratioP1;P2;durP2;ratioP2
66129;SDS011;52930;51.464;11.764;2023-07-24T00:02:23;6.10;;;1.10;;
66129;SDS011;52930;51.464;11.764;2023-07-24T00:04:48;3.10;;;0.90;;
66129;SDS011;52930;51.464;11.764;2023-07-24T00:07:14;3.03;;;0.80;;
66129;SDS011;52930;51.464;11.764;2023-07-24T00:09:39;2.93;;;0.80;;
66129;SDS011;52930;51.464;11.764;2023-07-24T00:12:04;3.40;;;1.00;;
66129;SDS011;52930;51.464;11.764;2023-07-24T00:14:30;3.25;;;0.90;;
66129;SDS011;52930;51.464;11.764;2023-07-24T00:16:55;2.90;;;0.60;;
66129;SDS011;52930;51.464;11.764;2023-07-24T00:19:21;3.80;;;1.03;;
66129;SDS011;52930;51.464;11.764;2023-07-24T00:21:46;3.50;;;0.80;;
66129;SDS011;52930;51.464;11.764;2023-07-24T00:24:11;3.10;;;0.80;;
66129;SDS011;52930;51.464;11.764;2023-07-24T00:26:37;3.47;;;0.97;;
66129;SDS011;52930;51.464;11.764;2023-07-24T00:29:02;3.27;;;0.87;;
66129;SDS011;52930;51.464;11.764;2023-07-24T00:31:27;3.57;;;0.90;;
66129;SDS011;52930;51.464;11.764;2023-07-24T00:33:53;2.90;;;0.80;;
66129;SDS011;52930;51.464;11.764;2023-07-24T00:36:18;3.47;;;0.80;;
66129;SDS011;52930;51.464;11.764;2023-07-24T00:38:44;3.50;;;0.80;;
66129;SDS011;52930;51.464;11.764;2023-07-24T00:41:09;3.60;;;1.02;;
66129;SDS011;52930;51.464;11.764;2023-07-24T00:43:34;3.13;;;1.00;;
66129;SDS011;52930;51.464;11.764;2023-07-24T00:46:00;3.30;;;1.00;;
66129;SDS011;52930;51.464;11.764;2023-07-24T00:48:25;3.67;;;0.90;;
66129;SDS011;52930;51.464;11.764;2023-07-24T00:50:51;3.85;;;1.00;;
66129;SDS011;52930;51.464;11.764;2023-07-24T00:53:16;4.33;;;0.77;;
66129;SDS011;52930;51.464;11.764;2023-07-24T00:55:42;4.57;;;0.90;;
66129;SDS011;52930;51.464;11.764;2023-07-24T00:58:07;3.33;;;0.90;;
66129;SDS011;52930;51.464;11.764;2023-07-24T01:00:36;6.93;;;0.90;;
66129;SDS011;52930;51.464;11.764;2023-07-24T01:03:05;3.73;;;1.00;;
66129;SDS011;52930;51.464;11.764;2023-07-24T01:05:30;3.40;;;1.20;;
66129;SDS011;52930;51.464;11.764;2023-07-24T01:07:57;3.37;;;1.10;;
66129;SDS011;52930;51.464;11.764;2023-07-24T01:10:22;3.43;;;1.10;;
66129;SDS011;52930;51.464;11.764;2023-07-24T01:12:53;3.75;;;0.90;;
66129;SDS011;52930;51.464;11.764;2023-07-24T01:18:10;3.60;;;0.90;;
66129;SDS011;52930;51.464;11.764;2023-07-24T01:20:37;3.20;;;0.88;;
66129;SDS011;52930;51.464;11.764;2023-07-24T01:25:57;3.90;;;0.95;;
66129;SDS011;52930;51.464;11.764;2023-07-24T01:28:27;3.55;;;1.00;;
66129;SDS011;52930;51.464;11.764;2023-07-24T01:30:52;3.97;;;0.90;;
66129;SDS011;52930;51.464;11.764;2023-07-24T01:33:18;4.50;;;1.20;;
66129;SDS011;52930;51.464;11.764;2023-07-24T01:35:44;3.33;;;0.90;;
66129;SDS011;52930;51.464;11.764;2023-07-24T01:38:10;4.60;;;1.07;;
66129;SDS011;52930;51.464;11.764;2023-07-24T01:40:38;5.55;;;0.80;;
66129;SDS011;52930;51.464;11.764;2023-07-24T01:43:06;3.33;;;1.00;;
66129;SDS011;52930;51.464;11.764;2023-07-24T01:45:31;3.95;;;1.23;;
66129;SDS011;52930;51.464;11.764;2023-07-24T01:47:57;3.30;;;1.00;;
66129;SDS011;52930;51.464;11.764;2023-07-24T01:50:23;4.00;;;1.10;;
66129;SDS011;52930;51.464;11.764;2023-07-24T01:52:48;3.22;;;0.70;;
66129;SDS011;52930;51.464;11.764;2023-07-24T01:55:13;3.43;;;0.83;;
66129;SDS011;52930;51.464;11.764;2023-07-24T01:57:39;3.67;;;0.90;;
66129;SDS011;52930;51.464;11.764;2023-07-24T02:00:04;4.13;;;1.20;;
66129;SDS011;52930;51.464;11.764;2023-07-24T02:02:31;3.95;;;1.10;;
66129;SDS011;52930;51.464;11.764;2023-07-24T02:04:56;3.73;;;0.90;;
66129;SDS011;52930;51.464;11.764;2023-07-24T02:07:21;4.17;;;1.13;;
66129;SDS011;52930;51.464;11.764;2023-07-24T02:09:47;3.47;;;0.90;;
66129;SDS011;52930;51.464;11.764;2023-07-24T02:12:12;5.70;;;1.20;;
66129;SDS011;52930;51.464;11.764;2023-07-24T02:14:37;3.73;;;1.40;;
66129;SDS011;52930;51.464;11.764;2023-07-24T02:17:03;3.55;;;1.00;;
66129;SDS011;52930;51.464;11.764;2023-07-24T02:19:28;3.90;;;1.40;;
66129;SDS011;52930;51.464;11.764;2023-07-24T02:21:54;3.20;;;1.03;;
66129;SDS011;52930;51.464;11.764;2023-07-24T02:24:19;3.57;;;1.13;;
66129;SDS011;52930;51.464;11.764;2023-07-24T02:29:10;6.18;;;1.17;;
66129;SDS011;52930;51.464;11.764;2023-07-24T02:31:35;4.30;;;1.43;;
66129;SDS011;52930;51.464;11.764;2023-07-24T02:34:00;3.72;;;1.10;;
66129;SDS011;52930;51.464;11.764;2023-07-24T02:36:26;4.90;;;1.20;;
66129;SDS011;52930;51.464;11.764;2023-07-24T02:38:51;5.17;;;1.07;;
66129;SDS011;52930;51.464;11.764;2023-07-24T02:41:17;3.60;;;1.00;;
66129;SDS011;52930;51.464;11.764;2023-07-24T02:43:42;3.92;;;1.20;;
66129;SDS011;52930;51.464;11.764;2023-07-24T02:46:07;4.27;;;1.30;;
66129;SDS011;52930;51.464;11.764;2023-07-24T02:48:33;4.77;;;1.37;;
66129;SDS011;52930;51.464;11.764;2023-07-24T02:50:58;3.93;;;1.57;;
66129;SDS011;52930;51.464;11.764;2023-07-24T02:53:23;5.60;;;1.20;;
66129;SDS011;52930;51.464;11.764;2023-07-24T02:55:49;4.00;;;1.10;;
66129;SDS011;52930;51.464;11.764;2023-07-24T02:58:14;5.27;;;1.10;;
66129;SDS011;52930;51.464;11.764;2023-07-24T03:00:40;4.87;;;1.30;;
66129;SDS011;52930;51.464;11.764;2023-07-24T03:03:05;5.15;;;1.20;;
66129;SDS011;52930;51.464;11.764;2023-07-24T03:05:31;4.53;;;1.13;;
66129;SDS011;52930;51.464;11.764;2023-07-24T03:07:56;4.50;;;1.00;;
66129;SDS011;52930;51.464;11.764;2023-07-24T03:10:22;4.60;;;1.10;;
66129;SDS011;52930;51.464;11.764;2023-07-24T03:12:48;3.77;;;1.10;;
66129;SDS011;52930;51.464;11.764;2023-07-24T03:15:13;4.93;;;1.30;;
66129;SDS011;52930;51.464;11.764;2023-07-24T03:17:38;3.93;;;1.10;;
66129;SDS011;52930;51.464;11.764;2023-07-24T03:20:14;5.17;;;1.30;;
66129;SDS011;52930;51.464;11.764;2023-07-24T03:22:41;6.72;;;1.50;;
66129;SDS011;52930;51.464;11.764;2023-07-24T03:25:07;4.60;;;1.58;;
66129;SDS011;52930;51.464;11.764;2023-07-24T03:27:33;5.47;;;1.40;;
66129;SDS011;52930;51.464;11.764;2023-07-24T03:29:58;4.70;;;1.43;;
66129;SDS011;52930;51.464;11.764;2023-07-24T03:32:23;3.73;;;1.20;;
66129;SDS011;52930;51.464;11.764;2023-07-24T03:34:49;4.73;;;1.23;;
66129;SDS011;52930;51.464;11.764;2023-07-24T03:37:14;4.40;;;1.17;;
66129;SDS011;52930;51.464;11.764;2023-07-24T03:39:40;3.90;;;1.00;;
66129;SDS011;52930;51.464;11.764;2023-07-24T03:42:05;4.57;;;1.10;;
66129;SDS011;52930;51.464;11.764;2023-07-24T03:44:30;4.80;;;1.47;;
66129;SDS011;52930;51.464;11.764;2023-07-24T03:46:56;4.63;;;1.13;;
66129;SDS011;52930;51.464;11.764;2023-07-24T03:49:21;5.67;;;1.40;;
66129;SDS011;52930;51.464;11.764;2023-07-24T03:51:47;3.90;;;1.00;;
66129;SDS011;52930;51.464;11.764;2023-07-24T03:54:13;3.42;;;1.10;;
66129;SDS011;52930;51.464;11.764;2023-07-24T03:56:38;4.00;;;1.03;;
66129;SDS011;52930;51.464;11.764;2023-07-24T03:59:05;3.50;;;1.17;;
66129;SDS011;52930;51.464;11.764;2023-07-24T04:01:30;4.55;;;1.10;;
66129;SDS011;52930;51.464;11.764;2023-07-24T04:03:56;4.13;;;1.23;;
66129;SDS011;52930;51.464;11.764;2023-07-24T04:06:22;3.92;;;1.30;;
66129;SDS011;52930;51.464;11.764;2023-07-24T04:08:48;3.93;;;1.13;;
66129;SDS011;52930;51.464;11.764;2023-07-24T04:11:13;7.23;;;1.10;;
66129;SDS011;52930;51.464;11.764;2023-07-24T04:13:38;4.68;;;1.25;;
66129;SDS011;52930;51.464;11.764;2023-07-24T04:16:04;4.47;;;1.30;;
66129;SDS011;52930;51.464;11.764;2023-07-24T04:18:29;6.40;;;1.50;;
66129;SDS011;52930;51.464;11.764;2023-07-24T04:20:55;4.97;;;1.30;;
66129;SDS011;52930;51.464;11.764;2023-07-24T04:23:21;5.45;;;1.10;;
66129;SDS011;52930;51.464;11.764;2023-07-24T04:25:46;4.03;;;1.10;;
66129;SDS011;52930;51.464;11.764;2023-07-24T04:28:14;4.72;;;1.10;;
66129;SDS011;52930;51.464;11.764;2023-07-24T04:30:40;5.33;;;1.20;;
66129;SDS011;52930;51.464;11.764;2023-07-24T04:33:05;4.50;;;1.07;;
66129;SDS011;52930;51.464;11.764;2023-07-24T04:35:30;3.80;;;1.00;;
66129;SDS011;52930;51.464;11.764;2023-07-24T04:37:56;4.30;;;1.30;;
66129;SDS011;52930;51.464;11.764;2023-07-24T04:40:22;4.70;;;1.25;;
66129;SDS011;52930;51.464;11.764;2023-07-24T04:42:48;3.95;;;1.27;;
66129;SDS011;52930;51.464;11.764;2023-07-24T04:45:13;4.57;;;1.23;;
66129;SDS011;52930;51.464;11.764;2023-07-24T04:47:39;4.47;;;1.07;;
66129;SDS011;52930;51.464;11.764;2023-07-24T04:50:04;4.97;;;1.03;;
66129;SDS011;52930;51.464;11.764;2023-07-24T04:52:30;6.78;;;1.40;;
66129;SDS011;52930;51.464;11.764;2023-07-24T04:54:55;4.20;;;1.27;;
66129;SDS011;52930;51.464;11.764;2023-07-24T04:57:21;6.87;;;1.50;;
66129;SDS011;52930;51.464;11.764;2023-07-24T04:59:46;4.70;;;1.20;;
66129;SDS011;52930;51.464;11.764;2023-07-24T05:02:11;7.27;;;1.43;;
66129;SDS011;52930;51.464;11.764;2023-07-24T05:04:37;4.30;;;1.33;;
66129;SDS011;52930;51.464;11.764;2023-07-24T05:07:02;6.13;;;1.53;;
66129;SDS011;52930;51.464;11.764;2023-07-24T05:09:28;6.00;;;1.40;;
66129;SDS011;52930;51.464;11.764;2023-07-24T05:11:53;4.60;;;1.80;;
66129;SDS011;52930;51.464;11.764;2023-07-24T05:14:18;4.73;;;1.37;;
66129;SDS011;52930;51.464;11.764;2023-07-24T05:16:44;4.57;;;1.50;;
66129;SDS011;52930;51.464;11.764;2023-07-24T05:19:09;4.20;;;1.40;;
66129;SDS011;52930;51.464;11.764;2023-07-24T05:21:34;4.70;;;1.30;;
66129;SDS011;52930;51.464;11.764;2023-07-24T05:24:00;5.30;;;1.40;;
66129;SDS011;52930;51.464;11.764;2023-07-24T05:26:25;4.55;;;1.65;;
66129;SDS011;52930;51.464;11.764;2023-07-24T05:28:51;5.67;;;1.67;;
66129;SDS011;52930;51.464;11.764;2023-07-24T05:31:17;8.50;;;1.63;;
66129;SDS011;52930;51.464;11.764;2023-07-24T05:33:43;5.00;;;1.60;;
66129;SDS011;52930;51.464;11.764;2023-07-24T05:36:08;5.93;;;2.00;;
66129;SDS011;52930;51.464;11.764;2023-07-24T05:38:34;4.63;;;1.80;;
66129;SDS011;52930;51.464;11.764;2023-07-24T05:41:00;6.70;;;1.50;;
66129;SDS011;52930;51.464;11.764;2023-07-24T05:43:27;4.55;;;1.42;;
66129;SDS011;52930;51.464;11.764;2023-07-24T05:45:53;4.50;;;1.50;;
66129;SDS011;52930;51.464;11.764;2023-07-24T05:48:19;5.55;;;1.98;;
66129;SDS011;52930;51.464;11.764;2023-07-24T05:50:45;4.60;;;1.83;;
66129;SDS011;52930;51.464;11.764;2023-07-24T05:53:10;5.25;;;1.77;;
66129;SDS011;52930;51.464;11.764;2023-07-24T05:55:36;11.03;;;2.13;;
66129;SDS011;52930;51.464;11.764;2023-07-24T05:58:01;5.43;;;2.23;;
66129;SDS011;52930;51.464;11.764;2023-07-24T06:00:27;6.30;;;2.37;;
66129;SDS011;52930;51.464;11.764;2023-07-24T06:02:52;6.77;;;2.33;;
66129;SDS011;52930;51.464;11.764;2023-07-24T06:05:18;5.28;;;2.08;;
66129;SDS011;52930;51.464;11.764;2023-07-24T06:07:44;5.45;;;2.08;;
66129;SDS011;52930;51.464;11.764;2023-07-24T06:10:10;5.63;;;1.83;;
66129;SDS011;52930;51.464;11.764;2023-07-24T06:12:35;4.93;;;2.15;;
66129;SDS011;52930;51.464;11.764;2023-07-24T06:15:01;4.60;;;2.10;;
66129;SDS011;52930;51.464;11.764;2023-07-24T06:17:26;5.93;;;2.00;;
66129;SDS011;52930;51.464;11.764;2023-07-24T06:19:51;4.70;;;2.00;;
66129;SDS011;52930;51.464;11.764;2023-07-24T06:22:17;6.30;;;2.03;;
66129;SDS011;52930;51.464;11.764;2023-07-24T06:24:42;5.73;;;1.90;;
66129;SDS011;52930;51.464;11.764;2023-07-24T06:27:07;6.43;;;2.00;;
66129;SDS011;52930;51.464;11.764;2023-07-24T06:29:33;5.03;;;1.80;;
66129;SDS011;52930;51.464;11.764;2023-07-24T06:31:58;6.03;;;1.80;;
66129;SDS011;52930;51.464;11.764;2023-07-24T06:34:24;4.13;;;1.60;;
66129;SDS011;52930;51.464;11.764;2023-07-24T06:36:49;7.13;;;2.40;;
66129;SDS011;52930;51.464;11.764;2023-07-24T06:39:14;5.43;;;1.83;;
66129;SDS011;52930;51.464;11.764;2023-07-24T06:41:40;7.87;;;2.40;;
66129;SDS011;52930;51.464;11.764;2023-07-24T06:44:05;4.90;;;1.80;;
66129;SDS011;52930;51.464;11.764;2023-07-24T06:46:31;7.00;;;1.90;;
66129;SDS011;52930;51.464;11.764;2023-07-24T06:48:56;4.90;;;1.90;;
66129;SDS011;52930;51.464;11.764;2023-07-24T06:51:22;5.77;;;1.97;;
66129;SDS011;52930;51.464;11.764;2023-07-24T06:53:47;5.17;;;2.07;;
66129;SDS011;52930;51.464;11.764;2023-07-24T06:56:12;4.82;;;1.80;;
66129;SDS011;52930;51.464;11.764;2023-07-24T06:58:38;6.10;;;2.10;;
66129;SDS011;52930;51.464;11.764;2023-07-24T07:01:07;6.73;;;2.50;;
66129;SDS011;52930;51.464;11.764;2023-07-24T07:03:32;5.60;;;2.00;;
66129;SDS011;52930;51.464;11.764;2023-07-24T07:06:00;8.52;;;2.17;;
66129;SDS011;52930;51.464;11.764;2023-07-24T07:08:25;5.80;;;1.90;;
66129;SDS011;52930;51.464;11.764;2023-07-24T07:10:57;4.80;;;1.80;;
66129;SDS011;52930;51.464;11.764;2023-07-24T07:13:24;6.05;;;2.15;;
66129;SDS011;52930;51.464;11.764;2023-07-24T07:15:49;5.23;;;2.20;;
66129;SDS011;52930;51.464;11.764;2023-07-24T07:18:15;6.17;;;2.70;;
66129;SDS011;52930;51.464;11.764;2023-07-24T07:20:47;5.80;;;2.30;;
66129;SDS011;52930;51.464;11.764;2023-07-24T07:23:13;5.25;;;2.05;;
66129;SDS011;52930;51.464;11.764;2023-07-24T07:25:38;6.73;;;2.43;;
66129;SDS011;52930;51.464;11.764;2023-07-24T07:28:03;8.57;;;2.63;;
66129;SDS011;52930;51.464;11.764;2023-07-24T07:30:29;4.75;;;2.10;;
66129;SDS011;52930;51.464;11.764;2023-07-24T07:32:54;6.20;;;2.30;;
66129;SDS011;52930;51.464;11.764;2023-07-24T07:35:20;6.27;;;1.90;;
66129;SDS011;52930;51.464;11.764;2023-07-24T07:37:45;7.07;;;1.97;;
66129;SDS011;52930;51.464;11.764;2023-07-24T07:40:10;5.17;;;2.20;;
66129;SDS011;52930;51.464;11.764;2023-07-24T07:42:36;6.00;;;2.38;;
66129;SDS011;52930;51.464;11.764;2023-07-24T07:45:01;5.40;;;2.60;;
66129;SDS011;52930;51.464;11.764;2023-07-24T07:47:27;6.50;;;2.20;;
66129;SDS011;52930;51.464;11.764;2023-07-24T07:49:52;6.60;;;2.80;;
66129;SDS011;52930;51.464;11.764;2023-07-24T07:52:17;6.47;;;2.27;;
66129;SDS011;52930;51.464;11.764;2023-07-24T07:54:46;6.47;;;2.33;;
66129;SDS011;52930;51.464;11.764;2023-07-24T07:57:12;5.37;;;2.53;;
66129;SDS011;52930;51.464;11.764;2023-07-24T07:59:38;7.33;;;2.50;;
66129;SDS011;52930;51.464;11.764;2023-07-24T08:02:03;5.68;;;2.60;;
66129;SDS011;52930;51.464;11.764;2023-07-24T08:04:28;5.40;;;2.50;;
66129;SDS011;52930;51.464;11.764;2023-07-24T08:06:54;8.47;;;2.33;;
66129;SDS011;52930;51.464;11.764;2023-07-24T08:09:19;5.43;;;1.90;;
66129;SDS011;52930;51.464;11.764;2023-07-24T08:11:46;6.43;;;2.47;;
66129;SDS011;52930;51.464;11.764;2023-07-24T08:14:12;5.60;;;2.15;;
66129;SDS011;52930;51.464;11.764;2023-07-24T08:16:37;6.33;;;2.80;;
66129;SDS011;52930;51.464;11.764;2023-07-24T08:19:03;6.10;;;2.60;;
66129;SDS011;52930;51.464;11.764;2023-07-24T08:21:28;7.53;;;2.73;;
66129;SDS011;52930;51.464;11.764;2023-07-24T08:23:53;6.13;;;2.40;;
66129;SDS011;52930;51.464;11.764;2023-07-24T08:26:19;5.30;;;2.20;;
66129;SDS011;52930;51.464;11.764;2023-07-24T08:28:44;6.73;;;2.90;;
66129;SDS011;52930;51.464;11.764;2023-07-24T08:31:10;5.68;;;2.67;;
66129;SDS011;52930;51.464;11.764;2023-07-24T08:33:36;6.67;;;2.63;;
66129;SDS011;52930;51.464;11.764;2023-07-24T08:36:02;6.80;;;2.65;;
66129;SDS011;52930;51.464;11.764;2023-07-24T08:38:29;6.80;;;2.63;;
66129;SDS011;52930;51.464;11.764;2023-07-24T08:41:01;7.30;;;2.75;;
66129;SDS011;52930;51.464;11.764;2023-07-24T08:43:28;7.50;;;3.07;;
66129;SDS011;52930;51.464;11.764;2023-07-24T08:45:55;5.78;;;2.50;;
66129;SDS011;52930;51.464;11.764;2023-07-24T08:48:22;6.97;;;2.85;;
66129;SDS011;52930;51.464;11.764;2023-07-24T08:50:49;6.05;;;2.65;;
66129;SDS011;52930;51.464;11.764;2023-07-24T08:53:15;6.78;;;2.45;;
66129;SDS011;52930;51.464;11.764;2023-07-24T08:55:41;6.20;;;2.57;;
66129;SDS011;52930;51.464;11.764;2023-07-24T08:58:07;6.07;;;2.83;;
66129;SDS011;52930;51.464;11.764;2023-07-24T09:00:34;6.07;;;2.83;;
66129;SDS011;52930;51.464;11.764;2023-07-24T09:02:59;6.13;;;3.07;;
66129;SDS011;52930;51.464;11.764;2023-07-24T09:05:25;5.40;;;2.70;;
66129;SDS011;52930;51.464;11.764;2023-07-24T09:07:51;6.37;;;2.83;;
66129;SDS011;52930;51.464;11.764;2023-07-24T09:10:23;6.25;;;2.75;;
66129;SDS011;52930;51.464;11.764;2023-07-24T09:12:49;11.52;;;3.35;;
66129;SDS011;52930;51.464;11.764;2023-07-24T09:15:14;12.87;;;3.43;;
66129;SDS011;52930;51.464;11.764;2023-07-24T09:17:49;7.60;;;3.10;;
66129;SDS011;52930;51.464;11.764;2023-07-24T09:20:15;9.65;;;3.38;;
66129;SDS011;52930;51.464;11.764;2023-07-24T09:22:48;8.47;;;2.80;;
66129;SDS011;52930;51.464;11.764;2023-07-24T09:25:29;8.23;;;3.35;;
66129;SDS011;52930;51.464;11.764;2023-07-24T09:28:00;9.40;;;3.17;;
66129;SDS011;52930;51.464;11.764;2023-07-24T09:30:26;7.80;;;2.85;;
66129;SDS011;52930;51.464;11.764;2023-07-24T09:32:52;13.10;;;3.07;;
66129;SDS011;52930;51.464;11.764;2023-07-24T09:35:18;6.10;;;2.63;;
66129;SDS011;52930;51.464;11.764;2023-07-24T09:37:44;13.70;;;3.30;;
66129;SDS011;52930;51.464;11.764;2023-07-24T09:40:10;13.95;;;3.15;;
66129;SDS011;52930;51.464;11.764;2023-07-24T09:42:36;46.38;;;5.55;;
66129;SDS011;52930;51.464;11.764;2023-07-24T09:45:03;9.13;;;3.30;;
66129;SDS011;52930;51.464;11.764;2023-07-24T09:47:30;9.77;;;3.33;;
66129;SDS011;52930;51.464;11.764;2023-07-24T09:49:55;9.68;;;3.30;;
66129;SDS011;52930;51.464;11.764;2023-07-24T09:52:21;13.50;;;3.43;;
66129;SDS011;52930;51.464;11.764;2023-07-24T09:54:59;8.13;;;3.17;;
66129;SDS011;52930;51.464;11.764;2023-07-24T09:57:28;8.50;;;3.27;;
66129;SDS011;52930;51.464;11.764;2023-07-24T09:59:54;7.85;;;3.33;;
66129;SDS011;52930;51.464;11.764;2023-07-24T10:02:21;9.10;;;3.85;;
66129;SDS011;52930;51.464;11.764;2023-07-24T10:04:48;6.93;;;3.17;;
66129;SDS011;52930;51.464;11.764;2023-07-24T10:07:14;7.32;;;2.95;;
66129;SDS011;52930;51.464;11.764;2023-07-24T10:09:41;7.13;;;3.03;;
66129;SDS011;52930;51.464;11.764;2023-07-24T10:12:08;8.00;;;3.42;;
66129;SDS011;52930;51.464;11.764;2023-07-24T10:14:34;8.60;;;3.40;;
66129;SDS011;52930;51.464;11.764;2023-07-24T10:17:00;6.28;;;2.80;;
66129;SDS011;52930;51.464;11.764;2023-07-24T10:19:34;10.03;;;3.57;;
66129;SDS011;52930;51.464;11.764;2023-07-24T10:22:02;9.35;;;3.55;;
66129;SDS011;52930;51.464;11.764;2023-07-24T10:24:32;9.57;;;3.67;;
66129;SDS011;52930;51.464;11.764;2023-07-24T10:26:58;10.57;;;3.73;;
66129;SDS011;52930;51.464;11.764;2023-07-24T10:29:24;10.33;;;3.23;;
66129;SDS011;52930;51.464;11.764;2023-07-24T10:31:53;11.17;;;3.80;;
66129;SDS011;52930;51.464;11.764;2023-07-24T10:34:19;7.93;;;3.33;;
66129;SDS011;52930;51.464;11.764;2023-07-24T10:36:45;7.80;;;3.53;;
66129;SDS011;52930;51.464;11.764;2023-07-24T10:39:14;8.70;;;3.45;;
66129;SDS011;52930;51.464;11.764;2023-07-24T10:41:42;6.87;;;3.13;;
66129;SDS011;52930;51.464;11.764;2023-07-24T10:44:09;6.57;;;3.30;;
66129;SDS011;52930;51.464;11.764;2023-07-24T10:46:35;10.67;;;3.80;;
66129;SDS011;52930;51.464;11.764;2023-07-24T10:49:01;8.35;;;3.47;;
66129;SDS011;52930;51.464;11.764;2023-07-24T10:51:28;9.85;;;3.90;;
66129;SDS011;52930;51.464;11.764;2023-07-24T10:53:54;9.93;;;4.03;;
66129;SDS011;52930;51.464;11.764;2023-07-24T10:56:19;8.30;;;3.57;;
66129;SDS011;52930;51.464;11.764;2023-07-24T10:58:45;8.63;;;3.47;;
66129;SDS011;52930;51.464;11.764;2023-07-24T11:01:10;9.53;;;4.20;;
66129;SDS011;52930;51.464;11.764;2023-07-24T11:03:36;9.50;;;3.63;;
66129;SDS011;52930;51.464;11.764;2023-07-24T11:06:02;9.30;;;3.97;;
66129;SDS011;52930;51.464;11.764;2023-07-24T11:08:28;9.57;;;3.55;;
66129;SDS011;52930;51.464;11.764;2023-07-24T11:10:55;10.45;;;3.97;;
66129;SDS011;52930;51.464;11.764;2023-07-24T11:13:24;11.57;;;4.05;;
66129;SDS011;52930;51.464;11.764;2023-07-24T11:15:51;7.80;;;4.10;;
66129;SDS011;52930;51.464;11.764;2023-07-24T11:18:17;10.65;;;3.58;;
66129;SDS011;52930;51.464;11.764;2023-07-24T11:20:47;8.40;;;3.70;;
66129;SDS011;52930;51.464;11.764;2023-07-24T11:23:16;9.65;;;4.03;;
66129;SDS011;52930;51.464;11.764;2023-07-24T11:25:42;10.67;;;3.83;;
66129;SDS011;52930;51.464;11.764;2023-07-24T11:28:09;9.43;;;3.78;;
66129;SDS011;52930;51.464;11.764;2023-07-24T11:30:35;8.55;;;3.40;;
66129;SDS011;52930;51.464;11.764;2023-07-24T11:33:02;21.80;;;4.40;;
66129;SDS011;52930;51.464;11.764;2023-07-24T11:35:28;9.30;;;3.60;;
66129;SDS011;52930;51.464;11.764;2023-07-24T11:37:54;10.57;;;3.80;;
66129;SDS011;52930;51.464;11.764;2023-07-24T11:40:19;9.05;;;3.80;;
66129;SDS011;52930;51.464;11.764;2023-07-24T11:42:46;6.20;;;3.03;;
66129;SDS011;52930;51.464;11.764;2023-07-24T11:45:13;7.68;;;3.30;;
66129;SDS011;52930;51.464;11.764;2023-07-24T11:47:45;8.30;;;4.03;;
66129;SDS011;52930;51.464;11.764;2023-07-24T11:50:12;9.15;;;3.70;;
66129;SDS011;52930;51.464;11.764;2023-07-24T11:52:38;32.83;;;3.72;;
66129;SDS011;52930;51.464;11.764;2023-07-24T11:55:05;9.85;;;4.25;;
66129;SDS011;52930;51.464;11.764;2023-07-24T11:57:30;7.20;;;3.63;;
66129;SDS011;52930;51.464;11.764;2023-07-24T11:59:56;7.37;;;3.37;;
66129;SDS011;52930;51.464;11.764;2023-07-24T12:02:27;9.50;;;3.58;;
66129;SDS011;52930;51.464;11.764;2023-07-24T12:04:56;8.38;;;3.67;;
66129;SDS011;52930;51.464;11.764;2023-07-24T12:07:43;7.85;;;3.17;;
66129;SDS011;52930;51.464;11.764;2023-07-24T12:10:10;8.40;;;3.92;;
66129;SDS011;52930;51.464;11.764;2023-07-24T12:12:42;8.23;;;3.77;;
66129;SDS011;52930;51.464;11.764;2023-07-24T12:15:08;8.55;;;4.25;;
66129;SDS011;52930;51.464;11.764;2023-07-24T12:17:34;7.68;;;3.55;;
66129;SDS011;52930;51.464;11.764;2023-07-24T12:20:00;7.70;;;3.42;;
66129;SDS011;52930;51.464;11.764;2023-07-24T12:22:26;8.60;;;3.73;;
66129;SDS011;52930;51.464;11.764;2023-07-24T12:24:51;11.30;;;3.47;;
66129;SDS011;52930;51.464;11.764;2023-07-24T12:27:16;6.83;;;3.53;;
66129;SDS011;52930;51.464;11.764;2023-07-24T12:29:42;8.97;;;3.80;;
66129;SDS011;52930;51.464;11.764;2023-07-24T12:32:07;9.35;;;4.15;;
66129;SDS011;52930;51.464;11.764;2023-07-24T12:34:33;8.43;;;3.67;;
66129;SDS011;52930;51.464;11.764;2023-07-24T12:36:58;21.40;;;5.20;;
66129;SDS011;52930;51.464;11.764;2023-07-24T12:39:23;16.90;;;4.43;;
66129;SDS011;52930;51.464;11.764;2023-07-24T12:41:49;11.77;;;3.70;;
66129;SDS011;52930;51.464;11.764;2023-07-24T12:44:14;9.95;;;3.85;;
66129;SDS011;52930;51.464;11.764;2023-07-24T12:46:39;14.37;;;4.30;;
66129;SDS011;52930;51.464;11.764;2023-07-24T12:49:05;7.80;;;3.47;;
66129;SDS011;52930;51.464;11.764;2023-07-24T12:51:30;9.27;;;3.70;;
66129;SDS011;52930;51.464;11.764;2023-07-24T12:53:55;9.50;;;4.17;;
66129;SDS011;52930;51.464;11.764;2023-07-24T12:56:21;11.87;;;3.90;;
66129;SDS011;52930;51.464;11.764;2023-07-24T12:58:46;10.40;;;4.20;;
66129;SDS011;52930;51.464;11.764;2023-07-24T13:01:12;10.60;;;3.78;;
66129;SDS011;52930;51.464;11.764;2023-07-24T13:03:37;16.50;;;4.13;;
66129;SDS011;52930;51.464;11.764;2023-07-24T13:06:02;13.07;;;4.00;;
66129;SDS011;52930;51.464;11.764;2023-07-24T13:08:28;9.13;;;4.20;;
66129;SDS011;52930;51.464;11.764;2023-07-24T13:10:53;14.40;;;3.90;;
66129;SDS011;52930;51.464;11.764;2023-07-24T13:13:18;8.07;;;3.50;;
66129;SDS011;52930;51.464;11.764;2023-07-24T13:15:44;9.07;;;4.30;;
66129;SDS011;52930;51.464;11.764;2023-07-24T13:18:09;10.23;;;3.40;;
66129;SDS011;52930;51.464;11.764;2023-07-24T13:20:35;16.43;;;4.00;;
66129;SDS011;52930;51.464;11.764;2023-07-24T13:23:00;26.83;;;4.80;;
66129;SDS011;52930;51.464;11.764;2023-07-24T13:25:25;11.27;;;4.10;;
66129;SDS011;52930;51.464;11.764;2023-07-24T13:27:51;8.77;;;3.50;;
66129;SDS011;52930;51.464;11.764;2023-07-24T13:30:17;7.73;;;3.07;;
66129;SDS011;52930;51.464;11.764;2023-07-24T13:32:43;8.02;;;3.22;;
66129;SDS011;52930;51.464;11.764;2023-07-24T13:35:08;8.63;;;3.77;;
66129;SDS011;52930;51.464;11.764;2023-07-24T13:37:34;9.27;;;3.43;;
66129;SDS011;52930;51.464;11.764;2023-07-24T13:39:59;8.40;;;3.53;;
66129;SDS011;52930;51.464;11.764;2023-07-24T13:42:24;6.67;;;3.13;;
66129;SDS011;52930;51.464;11.764;2023-07-24T13:44:50;8.83;;;3.80;;
66129;SDS011;52930;51.464;11.764;2023-07-24T13:47:16;7.88;;;3.55;;
66129;SDS011;52930;51.464;11.764;2023-07-24T13:49:42;8.00;;;3.60;;
66129;SDS011;52930;51.464;11.764;2023-07-24T13:52:07;6.53;;;2.80;;
66129;SDS011;52930;51.464;11.764;2023-07-24T13:54:32;6.97;;;3.27;;
66129;SDS011;52930;51.464;11.764;2023-07-24T13:56:58;10.83;;;3.57;;
66129;SDS011;52930;51.464;11.764;2023-07-24T13:59:23;10.90;;;3.50;;
66129;SDS011;52930;51.464;11.764;2023-07-24T14:01:48;7.90;;;3.67;;
66129;SDS011;52930;51.464;11.764;2023-07-24T14:04:14;8.80;;;3.70;;
66129;SDS011;52930;51.464;11.764;2023-07-24T14:06:39;7.23;;;3.83;;
66129;SDS011;52930;51.464;11.764;2023-07-24T14:09:05;9.88;;;3.92;;
66129;SDS011;52930;51.464;11.764;2023-07-24T14:11:30;7.90;;;3.57;;
66129;SDS011;52930;51.464;11.764;2023-07-24T14:13:56;8.77;;;4.17;;
66129;SDS011;52930;51.464;11.764;2023-07-24T14:16:21;15.50;;;4.80;;
66129;SDS011;52930;51.464;11.764;2023-07-24T14:18:46;11.90;;;4.00;;
66129;SDS011;52930;51.464;11.764;2023-07-24T14:21:12;9.33;;;4.40;;
66129;SDS011;52930;51.464;11.764;2023-07-24T14:23:37;9.63;;;4.00;;
66129;SDS011;52930;51.464;11.764;2023-07-24T14:26:02;11.37;;;4.10;;
66129;SDS011;52930;51.464;11.764;2023-07-24T14:28:28;54.50;;;8.33;;
66129;SDS011;52930;51.464;11.764;2023-07-24T14:30:53;14.97;;;4.20;;
66129;SDS011;52930;51.464;11.764;2023-07-24T14:33:19;9.97;;;3.40;;
66129;SDS011;52930;51.464;11.764;2023-07-24T14:35:44;7.68;;;3.60;;